sensor_id;sensor_type;location;lat;lon;timestamp;P1;durP1;ratioP1;P2;durP2;ratioP2
4307;SDS011;2167;53.448;9.984;2023-07-13T00:01:11;1.63;;;1.30;;
4307;SDS011;2167;53.448;9.984;2023-07-13T00:03:37;2.10;;;1.40;;
4307;SDS011;2167;53.448;9.984;2023-07-13T00:06:02;1.43;;;1.00;;
4307;SDS011;2167;53.448;9.984;2023-07-13T00:08:30;1.33;;;1.23;;
4307;SDS011;2167;53.448;9.984;2023-07-13T00:10:57;2.53;;;1.83;;
4307;SDS011;2167;53.448;9.984;2023-07-13T00:13:23;1.33;;;1.23;;
4307;SDS011;2167;53.448;9.984;2023-07-13T00:15:49;1.37;;;1.27;;
4307;SDS011;2167;53.448;9.984;2023-07-13T00:18:15;2.57;;;1.47;;
4307;SDS011;2167;53.448;9.984;2023-07-13T00:20:41;2.30;;;1.37;;
4307;SDS011;2167;53.448;9.984;2023-07-13T00:23:10;1.80;;;1.60;;
4307;SDS011;2167;53.448;9.984;2023-07-13T00:25:36;1.93;;;1.23;;
4307;SDS011;2167;53.448;9.984;2023-07-13T00:28:02;2.00;;;1.80;;
4307;SDS011;2167;53.448;9.984;2023-07-13T00:30:28;1.77;;;1.30;;
4307;SDS011;2167;53.448;9.984;2023-07-13T00:32:54;2.03;;;1.93;;
4307;SDS011;2167;53.448;9.984;2023-07-13T00:35:20;1.33;;;1.20;;
4307;SDS011;2167;53.448;9.984;2023-07-13T00:37:46;2.00;;;1.27;;
4307;SDS011;2167;53.448;9.984;2023-07-13T00:40:13;2.20;;;1.67;;
4307;SDS011;2167;53.448;9.984;2023-07-13T00:42:40;2.70;;;1.97;;
4307;SDS011;2167;53.448;9.984;2023-07-13T00:46:08;2.13;;;1.70;;
4307;SDS011;2167;53.448;9.984;2023-07-13T00:47:52;1.60;;;1.30;;
4307;SDS011;2167;53.448;9.984;2023-07-13T00:50:19;1.70;;;1.50;;
4307;SDS011;2167;53.448;9.984;2023-07-13T00:52:47;3.70;;;2.10;;
4307;SDS011;2167;53.448;9.984;2023-07-13T00:55:13;1.70;;;1.60;;
4307;SDS011;2167;53.448;9.984;2023-07-13T00:57:40;5.00;;;1.77;;
4307;SDS011;2167;53.448;9.984;2023-07-13T01:00:07;4.50;;;1.80;;
4307;SDS011;2167;53.448;9.984;2023-07-13T01:02:34;2.00;;;1.90;;
4307;SDS011;2167;53.448;9.984;2023-07-13T01:05:01;4.83;;;1.90;;
4307;SDS011;2167;53.448;9.984;2023-07-13T01:07:29;4.80;;;2.00;;
4307;SDS011;2167;53.448;9.984;2023-07-13T01:09:56;3.20;;;2.03;;
4307;SDS011;2167;53.448;9.984;2023-07-13T01:12:22;2.13;;;1.90;;
4307;SDS011;2167;53.448;9.984;2023-07-13T01:14:48;2.40;;;2.00;;
4307;SDS011;2167;53.448;9.984;2023-07-13T01:17:14;5.20;;;1.67;;
4307;SDS011;2167;53.448;9.984;2023-07-13T01:19:45;3.07;;;2.10;;
4307;SDS011;2167;53.448;9.984;2023-07-13T01:22:12;3.97;;;2.93;;
4307;SDS011;2167;53.448;9.984;2023-07-13T01:24:39;2.57;;;2.37;;
4307;SDS011;2167;53.448;9.984;2023-07-13T01:27:06;4.93;;;2.60;;
4307;SDS011;2167;53.448;9.984;2023-07-13T01:29:33;3.00;;;2.30;;
4307;SDS011;2167;53.448;9.984;2023-07-13T01:32:08;3.43;;;2.20;;
4307;SDS011;2167;53.448;9.984;2023-07-13T01:34:35;4.23;;;2.97;;
4307;SDS011;2167;53.448;9.984;2023-07-13T01:37:02;4.90;;;3.20;;
4307;SDS011;2167;53.448;9.984;2023-07-13T01:39:28;4.80;;;3.00;;
4307;SDS011;2167;53.448;9.984;2023-07-13T01:41:53;3.03;;;2.73;;
4307;SDS011;2167;53.448;9.984;2023-07-13T01:44:19;4.27;;;3.67;;
4307;SDS011;2167;53.448;9.984;2023-07-13T01:46:45;3.37;;;2.90;;
4307;SDS011;2167;53.448;9.984;2023-07-13T01:49:12;4.57;;;3.07;;
4307;SDS011;2167;53.448;9.984;2023-07-13T01:51:37;5.23;;;3.30;;
4307;SDS011;2167;53.448;9.984;2023-07-13T01:54:03;4.27;;;3.30;;
4307;SDS011;2167;53.448;9.984;2023-07-13T01:56:29;5.17;;;3.90;;
4307;SDS011;2167;53.448;9.984;2023-07-13T01:58:55;5.83;;;2.87;;
4307;SDS011;2167;53.448;9.984;2023-07-13T02:01:21;2.90;;;2.50;;
4307;SDS011;2167;53.448;9.984;2023-07-13T02:03:47;5.37;;;2.67;;
4307;SDS011;2167;53.448;9.984;2023-07-13T02:06:13;3.30;;;3.00;;
4307;SDS011;2167;53.448;9.984;2023-07-13T02:08:40;5.93;;;4.17;;
4307;SDS011;2167;53.448;9.984;2023-07-13T02:11:07;5.37;;;3.53;;
4307;SDS011;2167;53.448;9.984;2023-07-13T02:13:35;4.27;;;3.73;;
4307;SDS011;2167;53.448;9.984;2023-07-13T02:16:01;5.37;;;4.23;;
4307;SDS011;2167;53.448;9.984;2023-07-13T02:18:27;5.70;;;3.37;;
4307;SDS011;2167;53.448;9.984;2023-07-13T02:20:53;5.50;;;4.10;;
4307;SDS011;2167;53.448;9.984;2023-07-13T02:23:19;5.57;;;3.90;;
4307;SDS011;2167;53.448;9.984;2023-07-13T02:25:45;6.57;;;3.10;;
4307;SDS011;2167;53.448;9.984;2023-07-13T02:28:11;7.27;;;4.00;;
4307;SDS011;2167;53.448;9.984;2023-07-13T02:30:37;4.93;;;3.77;;
4307;SDS011;2167;53.448;9.984;2023-07-13T02:33:04;4.03;;;3.60;;
4307;SDS011;2167;53.448;9.984;2023-07-13T02:35:30;7.67;;;3.80;;
4307;SDS011;2167;53.448;9.984;2023-07-13T02:37:57;3.87;;;3.47;;
4307;SDS011;2167;53.448;9.984;2023-07-13T02:40:23;11.47;;;4.43;;
4307;SDS011;2167;53.448;9.984;2023-07-13T02:42:49;4.00;;;3.57;;
4307;SDS011;2167;53.448;9.984;2023-07-13T02:45:15;8.00;;;3.83;;
4307;SDS011;2167;53.448;9.984;2023-07-13T02:47:41;4.30;;;3.07;;
4307;SDS011;2167;53.448;9.984;2023-07-13T02:50:08;3.97;;;3.20;;
4307;SDS011;2167;53.448;9.984;2023-07-13T02:52:34;6.43;;;3.77;;
4307;SDS011;2167;53.448;9.984;2023-07-13T02:55:01;4.57;;;3.83;;
4307;SDS011;2167;53.448;9.984;2023-07-13T02:57:27;4.23;;;3.83;;
4307;SDS011;2167;53.448;9.984;2023-07-13T02:59:53;4.27;;;3.67;;
4307;SDS011;2167;53.448;9.984;2023-07-13T03:02:19;4.53;;;3.60;;
4307;SDS011;2167;53.448;9.984;2023-07-13T03:04:45;4.40;;;3.37;;
4307;SDS011;2167;53.448;9.984;2023-07-13T03:07:11;3.30;;;3.00;;
4307;SDS011;2167;53.448;9.984;2023-07-13T03:09:39;4.07;;;3.67;;
4307;SDS011;2167;53.448;9.984;2023-07-13T03:12:06;4.07;;;3.00;;
4307;SDS011;2167;53.448;9.984;2023-07-13T03:14:32;6.83;;;3.87;;
4307;SDS011;2167;53.448;9.984;2023-07-13T03:16:58;3.80;;;2.70;;
4307;SDS011;2167;53.448;9.984;2023-07-13T03:19:24;9.30;;;3.47;;
4307;SDS011;2167;53.448;9.984;2023-07-13T03:21:50;5.03;;;3.53;;
4307;SDS011;2167;53.448;9.984;2023-07-13T03:24:16;6.00;;;4.40;;
4307;SDS011;2167;53.448;9.984;2023-07-13T03:26:42;5.30;;;3.90;;
4307;SDS011;2167;53.448;9.984;2023-07-13T03:29:08;6.50;;;4.50;;
4307;SDS011;2167;53.448;9.984;2023-07-13T03:31:34;12.50;;;4.33;;
4307;SDS011;2167;53.448;9.984;2023-07-13T03:34:00;7.93;;;3.13;;
4307;SDS011;2167;53.448;9.984;2023-07-13T03:36:27;7.73;;;3.50;;
4307;SDS011;2167;53.448;9.984;2023-07-13T03:38:54;3.70;;;3.40;;
4307;SDS011;2167;53.448;9.984;2023-07-13T03:41:21;6.63;;;4.03;;
4307;SDS011;2167;53.448;9.984;2023-07-13T03:43:48;5.40;;;3.20;;
4307;SDS011;2167;53.448;9.984;2023-07-13T03:46:14;3.23;;;2.93;;
4307;SDS011;2167;53.448;9.984;2023-07-13T03:48:41;4.93;;;3.90;;
4307;SDS011;2167;53.448;9.984;2023-07-13T03:51:08;4.30;;;3.27;;
4307;SDS011;2167;53.448;9.984;2023-07-13T03:53:38;4.43;;;3.27;;
4307;SDS011;2167;53.448;9.984;2023-07-13T03:56:04;6.13;;;3.67;;
4307;SDS011;2167;53.448;9.984;2023-07-13T03:58:31;3.77;;;3.40;;
4307;SDS011;2167;53.448;9.984;2023-07-13T04:00:58;7.80;;;4.90;;
4307;SDS011;2167;53.448;9.984;2023-07-13T04:03:25;5.10;;;3.30;;
4307;SDS011;2167;53.448;9.984;2023-07-13T04:05:52;5.50;;;3.30;;
4307;SDS011;2167;53.448;9.984;2023-07-13T04:08:18;8.20;;;3.97;;
4307;SDS011;2167;53.448;9.984;2023-07-13T04:10:44;6.83;;;3.47;;
4307;SDS011;2167;53.448;9.984;2023-07-13T04:13:10;4.70;;;4.30;;
4307;SDS011;2167;53.448;9.984;2023-07-13T04:15:36;5.20;;;4.27;;
4307;SDS011;2167;53.448;9.984;2023-07-13T04:18:02;4.90;;;4.13;;
4307;SDS011;2167;53.448;9.984;2023-07-13T04:20:28;6.83;;;3.33;;
4307;SDS011;2167;53.448;9.984;2023-07-13T04:22:54;4.73;;;3.53;;
4307;SDS011;2167;53.448;9.984;2023-07-13T04:25:21;4.47;;;3.53;;
4307;SDS011;2167;53.448;9.984;2023-07-13T04:27:47;6.60;;;4.00;;
4307;SDS011;2167;53.448;9.984;2023-07-13T04:30:12;6.30;;;4.17;;
4307;SDS011;2167;53.448;9.984;2023-07-13T04:32:38;6.60;;;4.67;;
4307;SDS011;2167;53.448;9.984;2023-07-13T04:35:04;4.50;;;3.90;;
4307;SDS011;2167;53.448;9.984;2023-07-13T04:37:31;10.23;;;4.63;;
4307;SDS011;2167;53.448;9.984;2023-07-13T04:39:57;9.90;;;5.10;;
4307;SDS011;2167;53.448;9.984;2023-07-13T04:42:23;6.30;;;4.10;;
4307;SDS011;2167;53.448;9.984;2023-07-13T04:44:49;6.87;;;4.30;;
4307;SDS011;2167;53.448;9.984;2023-07-13T04:47:15;6.73;;;3.90;;
4307;SDS011;2167;53.448;9.984;2023-07-13T04:49:41;5.83;;;4.67;;
4307;SDS011;2167;53.448;9.984;2023-07-13T04:52:07;7.07;;;4.20;;
4307;SDS011;2167;53.448;9.984;2023-07-13T04:54:34;9.43;;;5.60;;
4307;SDS011;2167;53.448;9.984;2023-07-13T04:57:00;9.53;;;4.80;;
4307;SDS011;2167;53.448;9.984;2023-07-13T04:59:26;16.93;;;4.70;;
4307;SDS011;2167;53.448;9.984;2023-07-13T05:01:52;6.83;;;4.83;;
4307;SDS011;2167;53.448;9.984;2023-07-13T05:04:18;6.23;;;4.27;;
4307;SDS011;2167;53.448;9.984;2023-07-13T05:06:44;4.27;;;3.87;;
4307;SDS011;2167;53.448;9.984;2023-07-13T05:09:10;8.17;;;5.53;;
4307;SDS011;2167;53.448;9.984;2023-07-13T05:11:39;9.83;;;5.27;;
4307;SDS011;2167;53.448;9.984;2023-07-13T05:14:04;5.13;;;4.10;;
4307;SDS011;2167;53.448;9.984;2023-07-13T05:16:30;8.13;;;4.53;;
4307;SDS011;2167;53.448;9.984;2023-07-13T05:18:57;5.37;;;3.87;;
4307;SDS011;2167;53.448;9.984;2023-07-13T05:21:23;9.57;;;4.10;;
4307;SDS011;2167;53.448;9.984;2023-07-13T05:23:49;3.40;;;3.10;;
4307;SDS011;2167;53.448;9.984;2023-07-13T05:26:15;4.80;;;3.10;;
4307;SDS011;2167;53.448;9.984;2023-07-13T05:28:41;5.67;;;3.40;;
4307;SDS011;2167;53.448;9.984;2023-07-13T05:31:08;7.17;;;3.77;;
4307;SDS011;2167;53.448;9.984;2023-07-13T05:33:35;5.03;;;3.60;;
4307;SDS011;2167;53.448;9.984;2023-07-13T05:36:01;10.20;;;3.40;;
4307;SDS011;2167;53.448;9.984;2023-07-13T05:38:27;6.43;;;3.00;;
4307;SDS011;2167;53.448;9.984;2023-07-13T05:40:53;5.60;;;2.47;;
4307;SDS011;2167;53.448;9.984;2023-07-13T05:43:20;3.70;;;3.07;;
4307;SDS011;2167;53.448;9.984;2023-07-13T05:45:46;6.60;;;3.17;;
4307;SDS011;2167;53.448;9.984;2023-07-13T05:48:12;2.67;;;1.90;;
4307;SDS011;2167;53.448;9.984;2023-07-13T05:50:38;6.37;;;3.03;;
4307;SDS011;2167;53.448;9.984;2023-07-13T05:53:04;6.17;;;3.13;;
4307;SDS011;2167;53.448;9.984;2023-07-13T05:55:30;9.93;;;3.53;;
4307;SDS011;2167;53.448;9.984;2023-07-13T05:57:56;4.77;;;2.80;;
4307;SDS011;2167;53.448;9.984;2023-07-13T06:00:23;7.10;;;3.50;;
4307;SDS011;2167;53.448;9.984;2023-07-13T06:02:49;7.30;;;3.50;;
4307;SDS011;2167;53.448;9.984;2023-07-13T06:05:15;4.63;;;3.40;;
4307;SDS011;2167;53.448;9.984;2023-07-13T06:07:41;4.00;;;2.80;;
4307;SDS011;2167;53.448;9.984;2023-07-13T06:10:07;5.47;;;2.87;;
4307;SDS011;2167;53.448;9.984;2023-07-13T06:12:33;6.23;;;3.60;;
4307;SDS011;2167;53.448;9.984;2023-07-13T06:15:00;4.23;;;2.90;;
4307;SDS011;2167;53.448;9.984;2023-07-13T06:17:26;8.40;;;3.00;;
4307;SDS011;2167;53.448;9.984;2023-07-13T06:19:52;7.33;;;3.00;;
4307;SDS011;2167;53.448;9.984;2023-07-13T06:22:17;7.93;;;4.07;;
4307;SDS011;2167;53.448;9.984;2023-07-13T06:24:43;4.97;;;2.50;;
4307;SDS011;2167;53.448;9.984;2023-07-13T06:27:09;6.97;;;2.60;;
4307;SDS011;2167;53.448;9.984;2023-07-13T06:29:35;11.00;;;3.30;;
4307;SDS011;2167;53.448;9.984;2023-07-13T06:32:01;9.87;;;2.60;;
4307;SDS011;2167;53.448;9.984;2023-07-13T06:34:27;7.43;;;3.00;;
4307;SDS011;2167;53.448;9.984;2023-07-13T06:36:53;2.70;;;2.00;;
4307;SDS011;2167;53.448;9.984;2023-07-13T06:39:19;9.93;;;2.90;;
4307;SDS011;2167;53.448;9.984;2023-07-13T06:41:45;5.10;;;2.60;;
4307;SDS011;2167;53.448;9.984;2023-07-13T06:44:11;5.23;;;2.50;;
4307;SDS011;2167;53.448;9.984;2023-07-13T06:46:37;6.70;;;2.80;;
4307;SDS011;2167;53.448;9.984;2023-07-13T06:49:03;5.20;;;3.00;;
4307;SDS011;2167;53.448;9.984;2023-07-13T06:51:29;10.43;;;2.70;;
4307;SDS011;2167;53.448;9.984;2023-07-13T06:53:55;4.93;;;2.30;;
4307;SDS011;2167;53.448;9.984;2023-07-13T06:56:21;14.13;;;3.17;;
4307;SDS011;2167;53.448;9.984;2023-07-13T06:58:47;4.03;;;2.30;;
4307;SDS011;2167;53.448;9.984;2023-07-13T07:01:13;6.80;;;2.53;;
4307;SDS011;2167;53.448;9.984;2023-07-13T07:03:39;10.73;;;2.53;;
4307;SDS011;2167;53.448;9.984;2023-07-13T07:06:18;6.07;;;3.17;;
4307;SDS011;2167;53.448;9.984;2023-07-13T07:08:51;5.93;;;2.27;;
4307;SDS011;2167;53.448;9.984;2023-07-13T07:11:17;11.33;;;3.40;;
4307;SDS011;2167;53.448;9.984;2023-07-13T07:13:44;4.97;;;2.50;;
4307;SDS011;2167;53.448;9.984;2023-07-13T07:16:10;8.73;;;2.67;;
4307;SDS011;2167;53.448;9.984;2023-07-13T07:18:36;7.87;;;3.30;;
4307;SDS011;2167;53.448;9.984;2023-07-13T07:21:02;4.67;;;2.70;;
4307;SDS011;2167;53.448;9.984;2023-07-13T07:23:28;4.23;;;2.27;;
4307;SDS011;2167;53.448;9.984;2023-07-13T07:25:54;4.97;;;2.60;;
4307;SDS011;2167;53.448;9.984;2023-07-13T07:28:20;4.93;;;2.20;;
4307;SDS011;2167;53.448;9.984;2023-07-13T07:30:46;9.23;;;2.77;;
4307;SDS011;2167;53.448;9.984;2023-07-13T07:33:12;4.07;;;2.57;;
4307;SDS011;2167;53.448;9.984;2023-07-13T07:35:38;5.27;;;3.70;;
4307;SDS011;2167;53.448;9.984;2023-07-13T07:38:04;5.83;;;3.03;;
4307;SDS011;2167;53.448;9.984;2023-07-13T07:40:30;4.57;;;3.27;;
4307;SDS011;2167;53.448;9.984;2023-07-13T07:42:56;4.90;;;4.03;;
4307;SDS011;2167;53.448;9.984;2023-07-13T07:45:22;4.93;;;3.07;;
4307;SDS011;2167;53.448;9.984;2023-07-13T07:47:48;8.00;;;3.30;;
4307;SDS011;2167;53.448;9.984;2023-07-13T07:50:14;4.67;;;2.90;;
4307;SDS011;2167;53.448;9.984;2023-07-13T07:52:40;8.63;;;3.03;;
4307;SDS011;2167;53.448;9.984;2023-07-13T07:55:06;7.17;;;3.83;;
4307;SDS011;2167;53.448;9.984;2023-07-13T07:57:33;3.70;;;3.00;;
4307;SDS011;2167;53.448;9.984;2023-07-13T07:59:59;6.67;;;3.10;;
4307;SDS011;2167;53.448;9.984;2023-07-13T08:02:25;7.53;;;3.23;;
4307;SDS011;2167;53.448;9.984;2023-07-13T08:04:51;5.23;;;2.73;;
4307;SDS011;2167;53.448;9.984;2023-07-13T08:07:17;7.07;;;3.43;;
4307;SDS011;2167;53.448;9.984;2023-07-13T08:09:43;7.10;;;3.40;;
4307;SDS011;2167;53.448;9.984;2023-07-13T08:12:09;4.13;;;3.40;;
4307;SDS011;2167;53.448;9.984;2023-07-13T08:14:35;4.13;;;3.00;;
4307;SDS011;2167;53.448;9.984;2023-07-13T08:17:01;5.90;;;3.37;;
4307;SDS011;2167;53.448;9.984;2023-07-13T08:19:27;4.30;;;2.80;;
4307;SDS011;2167;53.448;9.984;2023-07-13T08:21:53;3.30;;;3.00;;
4307;SDS011;2167;53.448;9.984;2023-07-13T08:24:21;4.67;;;2.87;;
4307;SDS011;2167;53.448;9.984;2023-07-13T08:26:47;5.90;;;3.20;;
4307;SDS011;2167;53.448;9.984;2023-07-13T08:29:13;4.47;;;2.90;;
4307;SDS011;2167;53.448;9.984;2023-07-13T08:31:39;3.27;;;2.60;;
4307;SDS011;2167;53.448;9.984;2023-07-13T08:34:05;4.97;;;2.40;;
4307;SDS011;2167;53.448;9.984;2023-07-13T08:36:31;2.77;;;2.20;;
4307;SDS011;2167;53.448;9.984;2023-07-13T08:38:57;5.60;;;2.87;;
4307;SDS011;2167;53.448;9.984;2023-07-13T08:41:23;2.80;;;2.60;;
4307;SDS011;2167;53.448;9.984;2023-07-13T08:43:51;5.53;;;3.10;;
4307;SDS011;2167;53.448;9.984;2023-07-13T08:46:19;3.70;;;2.90;;
4307;SDS011;2167;53.448;9.984;2023-07-13T08:48:53;5.80;;;2.83;;
4307;SDS011;2167;53.448;9.984;2023-07-13T08:54:02;3.00;;;2.80;;
4307;SDS011;2167;53.448;9.984;2023-07-13T08:56:29;3.80;;;3.50;;
4307;SDS011;2167;53.448;9.984;2023-07-13T08:58:56;8.60;;;3.73;;
4307;SDS011;2167;53.448;9.984;2023-07-13T09:09:18;4.87;;;3.73;;
4307;SDS011;2167;53.448;9.984;2023-07-13T09:11:49;6.50;;;3.90;;
4307;SDS011;2167;53.448;9.984;2023-07-13T09:16:50;7.60;;;4.57;;
4307;SDS011;2167;53.448;9.984;2023-07-13T09:19:20;4.00;;;3.63;;
4307;SDS011;2167;53.448;9.984;2023-07-13T09:21:48;5.60;;;3.90;;
4307;SDS011;2167;53.448;9.984;2023-07-13T09:26:41;7.50;;;3.87;;
4307;SDS011;2167;53.448;9.984;2023-07-13T09:29:12;4.40;;;4.00;;
4307;SDS011;2167;53.448;9.984;2023-07-13T09:31:39;5.70;;;3.77;;
4307;SDS011;2167;53.448;9.984;2023-07-13T09:34:08;4.57;;;3.77;;
4307;SDS011;2167;53.448;9.984;2023-07-13T09:36:35;5.57;;;3.80;;
4307;SDS011;2167;53.448;9.984;2023-07-13T09:44:08;4.47;;;4.13;;
4307;SDS011;2167;53.448;9.984;2023-07-13T09:46:34;6.70;;;3.90;;
4307;SDS011;2167;53.448;9.984;2023-07-13T09:49:01;3.50;;;3.20;;
4307;SDS011;2167;53.448;9.984;2023-07-13T09:51:27;5.70;;;3.97;;
4307;SDS011;2167;53.448;9.984;2023-07-13T09:53:53;4.10;;;3.70;;
4307;SDS011;2167;53.448;9.984;2023-07-13T09:56:22;3.67;;;3.00;;
4307;SDS011;2167;53.448;9.984;2023-07-13T09:58:49;5.53;;;3.60;;
4307;SDS011;2167;53.448;9.984;2023-07-13T10:01:16;6.93;;;3.50;;
4307;SDS011;2167;53.448;9.984;2023-07-13T10:03:56;3.40;;;3.10;;
4307;SDS011;2167;53.448;9.984;2023-07-13T10:06:23;4.10;;;3.13;;
4307;SDS011;2167;53.448;9.984;2023-07-13T10:08:51;7.10;;;3.07;;
4307;SDS011;2167;53.448;9.984;2023-07-13T10:11:18;4.00;;;3.40;;
4307;SDS011;2167;53.448;9.984;2023-07-13T10:13:46;7.00;;;3.53;;
4307;SDS011;2167;53.448;9.984;2023-07-13T10:16:13;3.10;;;2.67;;
4307;SDS011;2167;53.448;9.984;2023-07-13T10:18:42;7.30;;;3.40;;
4307;SDS011;2167;53.448;9.984;2023-07-13T10:21:10;5.53;;;3.70;;
4307;SDS011;2167;53.448;9.984;2023-07-13T10:23:36;3.57;;;2.87;;
4307;SDS011;2167;53.448;9.984;2023-07-13T10:26:04;4.27;;;2.73;;
4307;SDS011;2167;53.448;9.984;2023-07-13T10:28:37;3.60;;;3.30;;
4307;SDS011;2167;53.448;9.984;2023-07-13T10:31:04;4.17;;;3.43;;
4307;SDS011;2167;53.448;9.984;2023-07-13T10:33:35;3.40;;;3.10;;
4307;SDS011;2167;53.448;9.984;2023-07-13T10:38:54;3.97;;;3.27;;
4307;SDS011;2167;53.448;9.984;2023-07-13T10:41:22;5.40;;;3.13;;
4307;SDS011;2167;53.448;9.984;2023-07-13T10:43:50;3.30;;;3.00;;
4307;SDS011;2167;53.448;9.984;2023-07-13T10:46:22;3.70;;;2.80;;
4307;SDS011;2167;53.448;9.984;2023-07-13T10:48:49;3.33;;;3.03;;
4307;SDS011;2167;53.448;9.984;2023-07-13T10:51:17;3.87;;;3.17;;
4307;SDS011;2167;53.448;9.984;2023-07-13T10:53:46;4.60;;;2.50;;
4307;SDS011;2167;53.448;9.984;2023-07-13T10:56:28;4.33;;;3.37;;
4307;SDS011;2167;53.448;9.984;2023-07-13T10:59:16;4.10;;;2.60;;
4307;SDS011;2167;53.448;9.984;2023-07-13T11:01:46;3.37;;;2.70;;
4307;SDS011;2167;53.448;9.984;2023-07-13T11:04:14;4.73;;;2.07;;
4307;SDS011;2167;53.448;9.984;2023-07-13T11:06:41;6.50;;;2.73;;
4307;SDS011;2167;53.448;9.984;2023-07-13T11:09:18;2.97;;;2.67;;
4307;SDS011;2167;53.448;9.984;2023-07-13T11:11:44;2.53;;;2.33;;
4307;SDS011;2167;53.448;9.984;2023-07-13T11:14:30;3.03;;;2.23;;
4307;SDS011;2167;53.448;9.984;2023-07-13T11:16:56;4.30;;;2.57;;
4307;SDS011;2167;53.448;9.984;2023-07-13T11:22:42;3.40;;;1.80;;
4307;SDS011;2167;53.448;9.984;2023-07-13T11:27:31;4.37;;;2.03;;
4307;SDS011;2167;53.448;9.984;2023-07-13T11:30:18;3.33;;;2.07;;
4307;SDS011;2167;53.448;9.984;2023-07-13T11:32:49;3.93;;;2.30;;
4307;SDS011;2167;53.448;9.984;2023-07-13T11:35:17;2.67;;;2.00;;
4307;SDS011;2167;53.448;9.984;2023-07-13T11:37:45;4.63;;;2.03;;
4307;SDS011;2167;53.448;9.984;2023-07-13T11:40:13;3.47;;;1.93;;
4307;SDS011;2167;53.448;9.984;2023-07-13T11:42:39;3.63;;;1.80;;
4307;SDS011;2167;53.448;9.984;2023-07-13T11:45:14;2.50;;;2.30;;
4307;SDS011;2167;53.448;9.984;2023-07-13T11:47:44;2.30;;;2.10;;
4307;SDS011;2167;53.448;9.984;2023-07-13T11:50:21;3.10;;;1.90;;
4307;SDS011;2167;53.448;9.984;2023-07-13T11:52:48;2.47;;;1.70;;
4307;SDS011;2167;53.448;9.984;2023-07-13T11:55:16;2.77;;;1.70;;
4307;SDS011;2167;53.448;9.984;2023-07-13T11:57:51;5.20;;;1.87;;
4307;SDS011;2167;53.448;9.984;2023-07-13T12:00:23;1.97;;;1.70;;
4307;SDS011;2167;53.448;9.984;2023-07-13T12:02:52;5.40;;;2.53;;
4307;SDS011;2167;53.448;9.984;2023-07-13T12:05:19;3.00;;;1.70;;
4307;SDS011;2167;53.448;9.984;2023-07-13T12:07:48;5.50;;;2.00;;
4307;SDS011;2167;53.448;9.984;2023-07-13T12:12:55;5.20;;;1.97;;
4307;SDS011;2167;53.448;9.984;2023-07-13T12:15:21;4.90;;;2.00;;
4307;SDS011;2167;53.448;9.984;2023-07-13T12:17:48;3.83;;;1.90;;
4307;SDS011;2167;53.448;9.984;2023-07-13T12:22:47;4.33;;;2.03;;
4307;SDS011;2167;53.448;9.984;2023-07-13T12:25:13;2.53;;;1.10;;
4307;SDS011;2167;53.448;9.984;2023-07-13T12:27:39;2.70;;;1.33;;
4307;SDS011;2167;53.448;9.984;2023-07-13T12:30:20;1.70;;;1.43;;
4307;SDS011;2167;53.448;9.984;2023-07-13T12:32:55;2.13;;;1.70;;
4307;SDS011;2167;53.448;9.984;2023-07-13T12:35:22;1.90;;;1.47;;
4307;SDS011;2167;53.448;9.984;2023-07-13T12:37:48;2.33;;;1.47;;
4307;SDS011;2167;53.448;9.984;2023-07-13T12:40:15;3.10;;;1.60;;
4307;SDS011;2167;53.448;9.984;2023-07-13T12:42:43;1.60;;;1.13;;
4307;SDS011;2167;53.448;9.984;2023-07-13T12:45:18;3.23;;;1.53;;
4307;SDS011;2167;53.448;9.984;2023-07-13T12:47:47;2.83;;;1.77;;
4307;SDS011;2167;53.448;9.984;2023-07-13T12:50:17;2.37;;;2.10;;
4307;SDS011;2167;53.448;9.984;2023-07-13T12:52:44;1.13;;;1.03;;
4307;SDS011;2167;53.448;9.984;2023-07-13T12:55:13;4.40;;;1.50;;
4307;SDS011;2167;53.448;9.984;2023-07-13T12:57:47;1.37;;;1.27;;
4307;SDS011;2167;53.448;9.984;2023-07-13T13:00:22;2.13;;;1.60;;
4307;SDS011;2167;53.448;9.984;2023-07-13T13:02:50;5.93;;;1.90;;
4307;SDS011;2167;53.448;9.984;2023-07-13T13:05:16;6.47;;;1.73;;
4307;SDS011;2167;53.448;9.984;2023-07-13T13:07:42;2.77;;;1.40;;
4307;SDS011;2167;53.448;9.984;2023-07-13T13:10:11;4.70;;;1.63;;
4307;SDS011;2167;53.448;9.984;2023-07-13T13:12:39;3.90;;;1.77;;
4307;SDS011;2167;53.448;9.984;2023-07-13T13:15:07;3.87;;;1.23;;
4307;SDS011;2167;53.448;9.984;2023-07-13T13:17:33;1.43;;;0.97;;
4307;SDS011;2167;53.448;9.984;2023-07-13T13:19:59;1.43;;;1.13;;
4307;SDS011;2167;53.448;9.984;2023-07-13T13:22:25;3.03;;;1.50;;
4307;SDS011;2167;53.448;9.984;2023-07-13T13:24:52;1.27;;;0.93;;
4307;SDS011;2167;53.448;9.984;2023-07-13T13:27:18;2.50;;;1.10;;
4307;SDS011;2167;53.448;9.984;2023-07-13T13:29:45;1.30;;;1.20;;
4307;SDS011;2167;53.448;9.984;2023-07-13T13:32:12;2.23;;;2.07;;
4307;SDS011;2167;53.448;9.984;2023-07-13T13:34:38;1.17;;;0.93;;
4307;SDS011;2167;53.448;9.984;2023-07-13T13:37:04;1.47;;;1.37;;
4307;SDS011;2167;53.448;9.984;2023-07-13T13:39:36;1.73;;;1.10;;
4307;SDS011;2167;53.448;9.984;2023-07-13T13:42:03;1.40;;;1.30;;
4307;SDS011;2167;53.448;9.984;2023-07-13T13:44:29;4.63;;;1.60;;
4307;SDS011;2167;53.448;9.984;2023-07-13T13:46:55;2.00;;;1.77;;
4307;SDS011;2167;53.448;9.984;2023-07-13T13:49:24;1.77;;;1.67;;
4307;SDS011;2167;53.448;9.984;2023-07-13T13:51:50;2.30;;;1.70;;
4307;SDS011;2167;53.448;9.984;2023-07-13T13:54:17;5.43;;;1.80;;
4307;SDS011;2167;53.448;9.984;2023-07-13T13:56:44;3.00;;;1.97;;
4307;SDS011;2167;53.448;9.984;2023-07-13T13:59:11;5.80;;;2.07;;
4307;SDS011;2167;53.448;9.984;2023-07-13T14:01:37;4.43;;;2.20;;
4307;SDS011;2167;53.448;9.984;2023-07-13T14:04:04;4.80;;;1.60;;
4307;SDS011;2167;53.448;9.984;2023-07-13T14:06:30;4.00;;;1.97;;
4307;SDS011;2167;53.448;9.984;2023-07-13T14:08:56;2.37;;;2.20;;
4307;SDS011;2167;53.448;9.984;2023-07-13T14:11:22;3.83;;;2.60;;
4307;SDS011;2167;53.448;9.984;2023-07-13T14:13:50;2.23;;;1.80;;
4307;SDS011;2167;53.448;9.984;2023-07-13T14:16:17;1.50;;;1.40;;
4307;SDS011;2167;53.448;9.984;2023-07-13T14:18:44;14.40;;;5.43;;
4307;SDS011;2167;53.448;9.984;2023-07-13T14:21:13;5.50;;;2.40;;
4307;SDS011;2167;53.448;9.984;2023-07-13T14:23:40;3.77;;;1.57;;
4307;SDS011;2167;53.448;9.984;2023-07-13T14:26:08;4.13;;;1.60;;
4307;SDS011;2167;53.448;9.984;2023-07-13T14:28:34;2.10;;;1.90;;
4307;SDS011;2167;53.448;9.984;2023-07-13T14:31:00;3.27;;;2.40;;
4307;SDS011;2167;53.448;9.984;2023-07-13T14:33:27;7.67;;;2.43;;
4307;SDS011;2167;53.448;9.984;2023-07-13T14:35:53;2.70;;;1.70;;
4307;SDS011;2167;53.448;9.984;2023-07-13T14:38:20;1.80;;;1.70;;
4307;SDS011;2167;53.448;9.984;2023-07-13T14:40:46;7.30;;;2.63;;
4307;SDS011;2167;53.448;9.984;2023-07-13T14:43:13;1.90;;;1.40;;
4307;SDS011;2167;53.448;9.984;2023-07-13T14:45:41;2.77;;;1.70;;
4307;SDS011;2167;53.448;9.984;2023-07-13T14:48:15;1.83;;;1.50;;
4307;SDS011;2167;53.448;9.984;2023-07-13T14:50:42;2.50;;;2.03;;
4307;SDS011;2167;53.448;9.984;2023-07-13T14:53:09;1.97;;;1.77;;
4307;SDS011;2167;53.448;9.984;2023-07-13T14:55:35;6.13;;;2.77;;
4307;SDS011;2167;53.448;9.984;2023-07-13T14:58:01;1.77;;;1.50;;
4307;SDS011;2167;53.448;9.984;2023-07-13T15:00:27;1.40;;;1.30;;
4307;SDS011;2167;53.448;9.984;2023-07-13T15:02:55;1.73;;;1.63;;
4307;SDS011;2167;53.448;9.984;2023-07-13T15:05:23;4.27;;;1.93;;
4307;SDS011;2167;53.448;9.984;2023-07-13T15:07:50;3.03;;;2.70;;
4307;SDS011;2167;53.448;9.984;2023-07-13T15:10:23;6.23;;;2.80;;
4307;SDS011;2167;53.448;9.984;2023-07-13T15:12:50;5.13;;;2.40;;
4307;SDS011;2167;53.448;9.984;2023-07-13T15:15:16;3.87;;;2.47;;
4307;SDS011;2167;53.448;9.984;2023-07-13T15:17:46;4.33;;;2.30;;
4307;SDS011;2167;53.448;9.984;2023-07-13T15:20:21;3.67;;;2.17;;
4307;SDS011;2167;53.448;9.984;2023-07-13T15:22:48;7.50;;;2.53;;
4307;SDS011;2167;53.448;9.984;2023-07-13T15:25:15;6.33;;;2.17;;
4307;SDS011;2167;53.448;9.984;2023-07-13T15:27:42;2.93;;;2.33;;
4307;SDS011;2167;53.448;9.984;2023-07-13T15:30:08;4.37;;;2.17;;
4307;SDS011;2167;53.448;9.984;2023-07-13T15:32:34;5.30;;;2.27;;
4307;SDS011;2167;53.448;9.984;2023-07-13T15:35:00;3.17;;;1.97;;
4307;SDS011;2167;53.448;9.984;2023-07-13T15:37:25;2.17;;;1.80;;
4307;SDS011;2167;53.448;9.984;2023-07-13T15:39:51;3.37;;;1.80;;
4307;SDS011;2167;53.448;9.984;2023-07-13T15:42:19;3.17;;;1.80;;
4307;SDS011;2167;53.448;9.984;2023-07-13T15:44:45;1.53;;;1.40;;
4307;SDS011;2167;53.448;9.984;2023-07-13T15:47:12;2.90;;;1.20;;
4307;SDS011;2167;53.448;9.984;2023-07-13T15:49:39;2.17;;;1.47;;